createdAt,value
2018-01-23T05:02:36.982Z,23.00
2018-01-23T05:17:48.875Z,26.08
2018-01-23T05:32:37.856Z,29.48
2018-01-23T05:47:36.425Z,25.23
2018-01-23T06:02:38.345Z,37.63
2018-01-23T06:17:36.270Z,29.48
2018-01-23T06:32:35.054Z,24.45
2018-01-23T06:47:38.766Z,28.90
2018-01-23T07:02:39.321Z,34.53
2018-01-23T07:17:36.496Z,33.03
2018-01-23T07:32:35.174Z,33.83
2018-01-23T07:47:36.675Z,31.17
2018-01-23T08:02:35.615Z,49.20
2018-01-23T08:17:56.715Z,37.67
2018-01-23T08:47:38.552Z,38.70
2018-01-23T09:02:37.570Z,32.73
2018-01-23T09:17:37.208Z,26.90
2018-01-23T09:47:35.472Z,98.07
2018-01-23T10:02:36.639Z,82.93
2018-01-23T10:17:34.472Z,64.57
2018-01-23T10:32:37.284Z,46.33
2018-01-23T10:47:36.355Z,29.80
2018-01-23T11:02:36.836Z,26.20
2018-01-23T11:17:35.097Z,25.63
2018-01-23T11:32:34.990Z,30.07
2018-01-23T11:47:43.578Z,29.10
2018-01-23T12:02:38.671Z,28.47
2018-01-23T12:17:39.836Z,28.83
2018-01-23T12:32:35.447Z,33.17
2018-01-23T12:47:34.298Z,24.93
2018-01-23T13:02:35.649Z,23.30
2018-01-23T13:17:39.490Z,21.50
2018-01-23T13:32:33.941Z,27.37
2018-01-23T13:47:35.236Z,41.57
2018-01-23T14:17:34.740Z,34.00
2018-01-23T14:32:40.257Z,27.60
2018-01-23T14:47:35.338Z,35.00
2018-01-23T15:02:38.124Z,33.03
2018-01-23T15:17:38.115Z,41.70
2018-01-23T15:32:34.528Z,36.60
2018-01-23T15:47:38.114Z,34.50
2018-01-23T16:02:34.365Z,34.33
2018-01-23T16:17:39.703Z,46.00
2018-01-23T16:32:42.977Z,46.90
2018-01-23T16:47:39.539Z,40.00
2018-01-23T17:02:37.675Z,60.37
2018-01-23T17:17:35.818Z,80.90
2018-01-23T17:32:35.465Z,75.87
2018-01-23T17:47:34.859Z,89.53
2018-01-23T18:02:36.828Z,71.93
2018-01-23T18:17:37.819Z,56.00
2018-01-23T18:32:38.480Z,51.53
2018-01-23T18:47:56.671Z,50.60
2018-01-23T19:02:36.117Z,38.33
2018-01-23T19:17:37.137Z,34.53
2018-01-23T19:32:34.867Z,42.83
2018-01-23T19:47:36.518Z,46.77
2018-01-23T20:02:36.353Z,64.53
2018-01-23T20:17:35.893Z,126.37
2018-01-23T20:32:48.791Z,103.83
2018-01-23T20:47:34.601Z,83.37
2018-01-23T21:02:36.511Z,66.43
2018-01-23T21:17:42.265Z,58.17
2018-01-23T21:32:46.356Z,51.33
2018-01-23T21:47:44.967Z,58.50
2018-01-23T22:02:34.743Z,57.67
2018-01-23T22:17:36.623Z,46.63
2018-01-23T22:32:36.559Z,42.13
2018-01-23T22:47:34.976Z,46.80
2018-01-23T23:02:35.531Z,39.93
2018-01-23T23:17:34.881Z,34.10
2018-01-23T23:32:34.739Z,30.90
2018-01-23T23:47:34.247Z,26.87
